Hozan Maru — JJ4010 — position and weather

sailwx.info

Track history (hours):
 
Tides and Currents Weather Stations Pressure Air Temp Water Temp Dewpoint Dewpoint Depression Visibility Wind Speed Wind Dir Waves Ship Positions

Hozan Maru

Last reported at 2014-Dec-21 03:13 UTC. Time now 2014-Dec-21 13:30 UTC.
Position N 34°39' E 135°25'.

Length 38 m; draft 3.6 m.

Type: Tug. MMSI: 431401501.

Date/timePositionNaut miles runAvg speedWind from/ knotsBaromVisibWave heightAir tempDewpointWater temp
2014-Dec-21 03:13N 34°39' E 135°25'1 1.8
2014-Dec-21 02:31N 34°38' E 135°26'5 4.9
2014-Dec-21 01:32N 34°33' E 135°26'1 0.7
2014-Dec-21 00:33N 34°33' E 135°27'2 2.0
2014-Dec-20 23:33N 34°34' E 135°24'3 3.3
2014-Dec-20 22:33N 34°37' E 135°24'  
2014-Dec-18 02:20N 34°40' E 135°27'5 6.6
2014-Dec-18 01:33N 34°36' E 135°24'2 1.6
2014-Dec-18 00:33N 34°35' E 135°25'3 2.9
2014-Dec-17 23:34N 34°36' E 135°22'5 5.0
2014-Dec-17 22:30N 34°31' E 135°24'0 0.0
2014-Dec-17 06:33N 34°31' E 135°23'0 0.5
2014-Dec-17 05:33N 34°31' E 135°24'4 4.2
2014-Dec-17 04:33N 34°30' E 135°19'4 3.6
2014-Dec-17 03:31N 34°26' E 135°19'0 0.1
2014-Dec-17 00:11N 34°26' E 135°20'1 0.8
2014-Dec-16 23:33N 34°26' E 135°19'7 5.9
2014-Dec-16 22:27N 34°32' E 135°23'1 0.9
2014-Dec-16 21:29N 34°31' E 135°24'0 0.2
2014-Dec-16 20:33N 34°31' E 135°24'5 4.8
2014-Dec-16 19:33N 34°36' E 135°22'5 0.4
2014-Dec-16 08:32N 34°38' E 135°27'2 0.1
2014-Dec-15 03:25N 34°40' E 135°26'6 7.1
2014-Dec-15 02:31N 34°33' E 135°25'0 0.0
2014-Dec-15 01:31N 34°33' E 135°25'4 3.8
2014-Dec-15 00:33N 34°33' E 135°21'4 2.9
2014-Dec-14 23:12N 34°31' E 135°24'1 1.0
2014-Dec-14 22:31N 34°31' E 135°23'3 2.8
2014-Dec-14 21:33N 34°34' E 135°23'7 0.2
2014-Dec-13 00:05N 34°40' E 135°27'5 9.7
2014-Dec-12 23:33N 34°37' E 135°23'4 0.4
2014-Dec-12 13:32N 34°33' E 135°26'0 0.2
2014-Dec-12 12:33N 34°33' E 135°25'2 2.4
2014-Dec-12 11:33N 34°35' E 135°25'1 1.0
2014-Dec-12 10:33N 34°34' E 135°26'4 3.4
2014-Dec-12 09:14N 34°39' E 135°25'6 9.3
2014-Dec-12 08:33N 34°33' E 135°24'1 0.7
2014-Dec-12 07:33N 34°32' E 135°24'1 1.2
2014-Dec-12 06:33N 34°31' E 135°24'0 0.0
2014-Dec-12 05:34N 34°31' E 135°24'0 0.0
2014-Dec-12 04:33N 34°31' E 135°24'0 0.0
2014-Dec-12 03:34N 34°31' E 135°24'0 0.0
2014-Dec-12 02:34N 34°31' E 135°24'0 0.0
2014-Dec-12 01:34N 34°31' E 135°24'1 0.7
2014-Dec-12 00:34N 34°31' E 135°23'9 9.2
2014-Dec-11 23:33N 34°40' E 135°26'4 0.2
2014-Dec-11 03:33N 34°37' E 135°23'  
Track history (hours):
 
Tides and Currents Weather Stations Pressure Air Temp Water Temp Dewpoint Dewpoint Depression Visibility Wind Speed Wind Dir Waves Ship Positions

Hozan Maru

Last reported at 2014-Dec-21 03:13 UTC. Time now 2014-Dec-21 13:30 UTC.
Position N 34°39' E 135°25'.

Length 38 m; draft 3.6 m.

Type: Tug. MMSI: 431401501.

Date/timePositionNaut miles runAvg speedWind from/ knotsBaromVisibWave heightAir tempDewpointWater temp
2014-Dec-21 03:13N 34°39' E 135°25'1 1.8
2014-Dec-21 02:31N 34°38' E 135°26'5 4.9
2014-Dec-21 01:32N 34°33' E 135°26'1 0.7
2014-Dec-21 00:33N 34°33' E 135°27'2 2.0
2014-Dec-20 23:33N 34°34' E 135°24'3 3.3
2014-Dec-20 22:33N 34°37' E 135°24'  
2014-Dec-18 02:20N 34°40' E 135°27'5 6.6
2014-Dec-18 01:33N 34°36' E 135°24'2 1.6
2014-Dec-18 00:33N 34°35' E 135°25'3 2.9
2014-Dec-17 23:34N 34°36' E 135°22'5 5.0
2014-Dec-17 22:30N 34°31' E 135°24'0 0.0
2014-Dec-17 06:33N 34°31' E 135°23'0 0.5
2014-Dec-17 05:33N 34°31' E 135°24'4 4.2
2014-Dec-17 04:33N 34°30' E 135°19'4 3.6
2014-Dec-17 03:31N 34°26' E 135°19'0 0.1
2014-Dec-17 00:11N 34°26' E 135°20'1 0.8
2014-Dec-16 23:33N 34°26' E 135°19'7 5.9
2014-Dec-16 22:27N 34°32' E 135°23'1 0.9
2014-Dec-16 21:29N 34°31' E 135°24'0 0.2
2014-Dec-16 20:33N 34°31' E 135°24'5 4.8
2014-Dec-16 19:33N 34°36' E 135°22'5 0.4
2014-Dec-16 08:32N 34°38' E 135°27'2 0.1
2014-Dec-15 03:25N 34°40' E 135°26'6 7.1
2014-Dec-15 02:31N 34°33' E 135°25'0 0.0
2014-Dec-15 01:31N 34°33' E 135°25'4 3.8
2014-Dec-15 00:33N 34°33' E 135°21'4 2.9
2014-Dec-14 23:12N 34°31' E 135°24'1 1.0
2014-Dec-14 22:31N 34°31' E 135°23'3 2.8
2014-Dec-14 21:33N 34°34' E 135°23'7 0.2
2014-Dec-13 00:05N 34°40' E 135°27'5 9.7
2014-Dec-12 23:33N 34°37' E 135°23'4 0.4
2014-Dec-12 13:32N 34°33' E 135°26'0 0.2
2014-Dec-12 12:33N 34°33' E 135°25'2 2.4
2014-Dec-12 11:33N 34°35' E 135°25'1 1.0
2014-Dec-12 10:33N 34°34' E 135°26'4 3.4
2014-Dec-12 09:14N 34°39' E 135°25'6 9.3
2014-Dec-12 08:33N 34°33' E 135°24'1 0.7
2014-Dec-12 07:33N 34°32' E 135°24'1 1.2
2014-Dec-12 06:33N 34°31' E 135°24'0 0.0
2014-Dec-12 05:34N 34°31' E 135°24'0 0.0
2014-Dec-12 04:33N 34°31' E 135°24'0 0.0
2014-Dec-12 03:34N 34°31' E 135°24'0 0.0
2014-Dec-12 02:34N 34°31' E 135°24'0 0.0
2014-Dec-12 01:34N 34°31' E 135°24'1 0.7
2014-Dec-12 00:34N 34°31' E 135°23'9 9.2
2014-Dec-11 23:33N 34°40' E 135°26'4 0.2
2014-Dec-11 03:33N 34°37' E 135°23'  

Dump ship's entire track history